Portada
METAR-TAF:

METAR-TAF

Aeroports :

Wattisham, Anglaterra

latitud: 52-07N, longitud: 000-58E, altitud: 87 m

Observació

L'informe es va fer fa 22 minuts, a les 20:20 UTC
Vent 8 kt del Est/Nord-Est
Temperatura 15°C
Humitat 63%
Pressió 1022 hPa
Visibilitat 10 km o més
sense núvols per sota de 1500 mi sense presència de cumulonimbus.

METAR: EGUW 012020Z 06008KT CAVOK 15/08 Q1022 NOSIG RMK BLU BLU

Hora: 21:42 (20:42 UTC)

Pronòstic

L'informe es va fer fa 3 hores i 59 minuts, a les 16:43 UTC
Pronòstic vàlid del 01 a les 18 UTC al 02 a les 02 UTC
Vent 9 kt del Est/Nord-Est
Visibilitat 10 km o més
sense núvols per sota de 1500 mi sense presència de cumulonimbus.
Probabilitat 30%
l' 02 a les 01 UTC al 02 a les 02 UTC
Visibilitat: 0500 m
Cel ennuvolat a una alçada menor de 100 ft
boira

TAF: EGUW 011643Z 0118/0202 06009KT CAVOK PROB30 0201/0202 0500 FG BKN000

Observacions i pronòstics meteorològics de més de 4000 aeroports (METAR i TAF).

Les estacions disponibles són els punts grocs i vermells al mapa.

Posi el ratolí al punt desitjat per veure el nom de l'estació.

Feu clic per veure les observacions i els pronòstics meteorològics.

Per canviar el mapa: feu clic els botons verds amb una creu de color negre per apropar; al botó verd amb un guió per allunyar la imatge; o en les fletxes verdes per a mapes adjacents.


METAR-TAF: